Kitty C — 2EIQ6 — position and weather

sailwx.info

Track history (hours):
 
Tides and Currents Weather Stations Pressure Air Temp Water Temp Dewpoint Dewpoint Depression Visibility Wind Speed Wind Dir Waves Ship Positions

Kitty C

Last reported at 2016-Apr-29 18:32 UTC. Time now 2016-Apr-30 22:31 UTC.
Position N 43°12' E 009°33'.

Length 106 m; draft 4.6 m.

Type: Cargo ship. MMSI: 235085464.

Date/timePositionNaut miles runAvg speedWind from/ knotsBaromVisibWave heightAir tempDewpointWater temp
2016-Apr-29 18:32N 43°12' E 009°33'1010.5
2016-Apr-29 17:32N 43°17' E 009°45'1010.7
2016-Apr-29 16:33N 43°20' E 009°59'1111.1
2016-Apr-29 15:33N 43°28' E 010°10'9 8.6
2016-Apr-29 14:33N 43°34' E 010°18'1 0.5
2016-Apr-29 13:31N 43°34' E 010°19'0 0.0
2016-Apr-29 12:31N 43°34' E 010°19'0 0.0
2016-Apr-29 11:31N 43°34' E 010°19'0 0.0
2016-Apr-29 10:31N 43°34' E 010°19'0 0.0
2016-Apr-29 09:31N 43°34' E 010°19'0 0.0
2016-Apr-29 08:31N 43°34' E 010°19'0 0.0
2016-Apr-29 07:31N 43°34' E 010°19'0 0.0
2016-Apr-29 06:31N 43°34' E 010°19'0 0.0
2016-Apr-29 05:25N 43°34' E 010°19'0 0.0
2016-Apr-29 04:31N 43°34' E 010°19'0 0.0
2016-Apr-29 03:31N 43°34' E 010°19'0 0.0
2016-Apr-29 02:31N 43°34' E 010°19'0 0.0
2016-Apr-29 01:28N 43°34' E 010°19'0 0.0
2016-Apr-29 00:31N 43°34' E 010°19'0 0.0
2016-Apr-28 23:31N 43°34' E 010°19'0 0.0
2016-Apr-28 22:28N 43°34' E 010°19'0 0.0
2016-Apr-28 21:28N 43°34' E 010°19'0 0.0
2016-Apr-28 20:31N 43°34' E 010°19'0 0.0
2016-Apr-28 19:25N 43°34' E 010°19'0 0.0
2016-Apr-28 18:31N 43°34' E 010°19'0 0.0
2016-Apr-28 17:31N 43°34' E 010°19'0 0.0
2016-Apr-28 16:31N 43°34' E 010°19'0 0.0
2016-Apr-28 15:31N 43°34' E 010°19'0 0.0
2016-Apr-28 14:31N 43°34' E 010°19'0 0.0
2016-Apr-28 13:31N 43°34' E 010°19'0 0.0
2016-Apr-28 12:31N 43°34' E 010°19'0 0.0
2016-Apr-28 11:31N 43°34' E 010°19'0 0.0
2016-Apr-28 10:31N 43°34' E 010°19'0 0.0
2016-Apr-28 09:31N 43°34' E 010°19'0 0.0
2016-Apr-28 08:32N 43°34' E 010°19'3 2.8
2016-Apr-28 07:34N 43°32' E 010°17'1 1.2
2016-Apr-28 06:31N 43°31' E 010°17'0 0.0
2016-Apr-28 05:31N 43°31' E 010°17'0 0.0
2016-Apr-28 04:31N 43°31' E 010°17'0 0.0
2016-Apr-28 03:31N 43°31' E 010°17'0 0.0
2016-Apr-28 02:31N 43°31' E 010°17'0 0.0
2016-Apr-28 01:31N 43°31' E 010°17'0 0.0
2016-Apr-28 00:31N 43°31' E 010°17'0 0.0
2016-Apr-27 23:31N 43°31' E 010°17'0 0.0
2016-Apr-27 22:31N 43°31' E 010°17'0 0.0
2016-Apr-27 21:31N 43°31' E 010°17'0 0.0
2016-Apr-27 20:31N 43°31' E 010°17'0 0.0
2016-Apr-27 19:31N 43°31' E 010°17'0 0.0
2016-Apr-27 18:31N 43°31' E 010°17'0 0.0
2016-Apr-27 17:31N 43°31' E 010°17'0 0.0
2016-Apr-27 16:25N 43°31' E 010°17'0 0.0
2016-Apr-27 15:31N 43°31' E 010°17'5 5.0
2016-Apr-27 14:34N 43°28' E 010°11'9 9.3
2016-Apr-27 13:34N 43°22' E 010°02'9 9.3
2016-Apr-27 12:34N 43°18' E 009°50'10 9.9
2016-Apr-27 11:33N 43°13' E 009°38'35110.0
2016-Apr-26 00:33N 40°07' E 002°59'1010.0
2016-Apr-25 23:33N 40°01' E 002°48'1010.3
2016-Apr-25 22:33N 39°56' E 002°37'1010.4
2016-Apr-25 21:33N 39°50' E 002°26'1110.6
2016-Apr-25 20:33N 39°44' E 002°14'1110.7
2016-Apr-25 19:33N 39°38' E 002°03'1010.5
2016-Apr-25 18:33N 39°32' E 001°52'1010.4
2016-Apr-25 17:33N 39°26' E 001°41'143 9.5
2016-Apr-25 02:31N 37°41' W 000°23'1010.2
2016-Apr-25 01:33N 37°34' W 000°31'1110.0
2016-Apr-25 00:28N 37°26' W 000°41'9 9.7
2016-Apr-24 23:33N 37°20' W 000°49'10 9.9
2016-Apr-24 22:31N 37°13' W 000°59'22110.0
2016-Apr-24 00:33N 35°58' W 005°17'260 8.3
2016-Apr-22 17:27N 38°11' W 009°57'9 9.5
2016-Apr-22 16:33N 38°19' W 009°59'10 9.6
2016-Apr-22 15:33N 38°29' W 010°02'10 9.6
2016-Apr-22 14:33N 38°38' W 010°05'10 9.6
2016-Apr-22 13:33N 38°48' W 010°06'9 9.3
2016-Apr-22 12:33N 38°57' W 010°05'9 9.3
2016-Apr-22 11:33N 39°06' W 010°02'10 9.6
2016-Apr-22 10:33N 39°15' W 009°59'10 9.8
2016-Apr-22 09:32N 39°25' W 009°56'  
Track history (hours):
 
Tides and Currents Weather Stations Pressure Air Temp Water Temp Dewpoint Dewpoint Depression Visibility Wind Speed Wind Dir Waves Ship Positions

Kitty C

Last reported at 2016-Apr-29 18:32 UTC. Time now 2016-Apr-30 22:31 UTC.
Position N 43°12' E 009°33'.

Length 106 m; draft 4.6 m.

Type: Cargo ship. MMSI: 235085464.

Date/timePositionNaut miles runAvg speedWind from/ knotsBaromVisibWave heightAir tempDewpointWater temp
2016-Apr-29 18:32N 43°12' E 009°33'1010.5
2016-Apr-29 17:32N 43°17' E 009°45'1010.7
2016-Apr-29 16:33N 43°20' E 009°59'1111.1
2016-Apr-29 15:33N 43°28' E 010°10'9 8.6
2016-Apr-29 14:33N 43°34' E 010°18'1 0.5
2016-Apr-29 13:31N 43°34' E 010°19'0 0.0
2016-Apr-29 12:31N 43°34' E 010°19'0 0.0
2016-Apr-29 11:31N 43°34' E 010°19'0 0.0
2016-Apr-29 10:31N 43°34' E 010°19'0 0.0
2016-Apr-29 09:31N 43°34' E 010°19'0 0.0
2016-Apr-29 08:31N 43°34' E 010°19'0 0.0
2016-Apr-29 07:31N 43°34' E 010°19'0 0.0
2016-Apr-29 06:31N 43°34' E 010°19'0 0.0
2016-Apr-29 05:25N 43°34' E 010°19'0 0.0
2016-Apr-29 04:31N 43°34' E 010°19'0 0.0
2016-Apr-29 03:31N 43°34' E 010°19'0 0.0
2016-Apr-29 02:31N 43°34' E 010°19'0 0.0
2016-Apr-29 01:28N 43°34' E 010°19'0 0.0
2016-Apr-29 00:31N 43°34' E 010°19'0 0.0
2016-Apr-28 23:31N 43°34' E 010°19'0 0.0
2016-Apr-28 22:28N 43°34' E 010°19'0 0.0
2016-Apr-28 21:28N 43°34' E 010°19'0 0.0
2016-Apr-28 20:31N 43°34' E 010°19'0 0.0
2016-Apr-28 19:25N 43°34' E 010°19'0 0.0
2016-Apr-28 18:31N 43°34' E 010°19'0 0.0
2016-Apr-28 17:31N 43°34' E 010°19'0 0.0
2016-Apr-28 16:31N 43°34' E 010°19'0 0.0
2016-Apr-28 15:31N 43°34' E 010°19'0 0.0
2016-Apr-28 14:31N 43°34' E 010°19'0 0.0
2016-Apr-28 13:31N 43°34' E 010°19'0 0.0
2016-Apr-28 12:31N 43°34' E 010°19'0 0.0
2016-Apr-28 11:31N 43°34' E 010°19'0 0.0
2016-Apr-28 10:31N 43°34' E 010°19'0 0.0
2016-Apr-28 09:31N 43°34' E 010°19'0 0.0
2016-Apr-28 08:32N 43°34' E 010°19'3 2.8
2016-Apr-28 07:34N 43°32' E 010°17'1 1.2
2016-Apr-28 06:31N 43°31' E 010°17'0 0.0
2016-Apr-28 05:31N 43°31' E 010°17'0 0.0
2016-Apr-28 04:31N 43°31' E 010°17'0 0.0
2016-Apr-28 03:31N 43°31' E 010°17'0 0.0
2016-Apr-28 02:31N 43°31' E 010°17'0 0.0
2016-Apr-28 01:31N 43°31' E 010°17'0 0.0
2016-Apr-28 00:31N 43°31' E 010°17'0 0.0
2016-Apr-27 23:31N 43°31' E 010°17'0 0.0
2016-Apr-27 22:31N 43°31' E 010°17'0 0.0
2016-Apr-27 21:31N 43°31' E 010°17'0 0.0
2016-Apr-27 20:31N 43°31' E 010°17'0 0.0
2016-Apr-27 19:31N 43°31' E 010°17'0 0.0
2016-Apr-27 18:31N 43°31' E 010°17'0 0.0
2016-Apr-27 17:31N 43°31' E 010°17'0 0.0
2016-Apr-27 16:25N 43°31' E 010°17'0 0.0
2016-Apr-27 15:31N 43°31' E 010°17'5 5.0
2016-Apr-27 14:34N 43°28' E 010°11'9 9.3
2016-Apr-27 13:34N 43°22' E 010°02'9 9.3
2016-Apr-27 12:34N 43°18' E 009°50'10 9.9
2016-Apr-27 11:33N 43°13' E 009°38'35110.0
2016-Apr-26 00:33N 40°07' E 002°59'1010.0
2016-Apr-25 23:33N 40°01' E 002°48'1010.3
2016-Apr-25 22:33N 39°56' E 002°37'1010.4
2016-Apr-25 21:33N 39°50' E 002°26'1110.6
2016-Apr-25 20:33N 39°44' E 002°14'1110.7
2016-Apr-25 19:33N 39°38' E 002°03'1010.5
2016-Apr-25 18:33N 39°32' E 001°52'1010.4
2016-Apr-25 17:33N 39°26' E 001°41'143 9.5
2016-Apr-25 02:31N 37°41' W 000°23'1010.2
2016-Apr-25 01:33N 37°34' W 000°31'1110.0
2016-Apr-25 00:28N 37°26' W 000°41'9 9.7
2016-Apr-24 23:33N 37°20' W 000°49'10 9.9
2016-Apr-24 22:31N 37°13' W 000°59'22110.0
2016-Apr-24 00:33N 35°58' W 005°17'260 8.3
2016-Apr-22 17:27N 38°11' W 009°57'9 9.5
2016-Apr-22 16:33N 38°19' W 009°59'10 9.6
2016-Apr-22 15:33N 38°29' W 010°02'10 9.6
2016-Apr-22 14:33N 38°38' W 010°05'10 9.6
2016-Apr-22 13:33N 38°48' W 010°06'9 9.3
2016-Apr-22 12:33N 38°57' W 010°05'9 9.3
2016-Apr-22 11:33N 39°06' W 010°02'10 9.6
2016-Apr-22 10:33N 39°15' W 009°59'10 9.8
2016-Apr-22 09:32N 39°25' W 009°56'  

Dump ship's entire track history